sensor_id;sensor_type;location;lat;lon;timestamp;temperature;humidity
7048;DHT22;3565;53.254;10.352;2023-08-06T00:01:23;15.30;99.90
7048;DHT22;3565;53.254;10.352;2023-08-06T00:06:30;15.30;99.90
7048;DHT22;3565;53.254;10.352;2023-08-06T00:08:59;15.30;99.90
7048;DHT22;3565;53.254;10.352;2023-08-06T00:11:28;15.30;99.90
7048;DHT22;3565;53.254;10.352;2023-08-06T00:13:57;15.30;99.90
7048;DHT22;3565;53.254;10.352;2023-08-06T00:16:26;15.30;99.90
7048;DHT22;3565;53.254;10.352;2023-08-06T00:18:55;15.30;99.90
7048;DHT22;3565;53.254;10.352;2023-08-06T00:21:26;15.40;99.90
7048;DHT22;3565;53.254;10.352;2023-08-06T00:23:55;15.30;99.90
7048;DHT22;3565;53.254;10.352;2023-08-06T00:26:24;15.30;99.90
7048;DHT22;3565;53.254;10.352;2023-08-06T00:31:31;15.40;99.90
7048;DHT22;3565;53.254;10.352;2023-08-06T00:34:01;15.40;99.90
7048;DHT22;3565;53.254;10.352;2023-08-06T00:36:31;15.30;99.90
7048;DHT22;3565;53.254;10.352;2023-08-06T00:39:00;15.30;99.90
7048;DHT22;3565;53.254;10.352;2023-08-06T00:41:29;15.30;99.90
7048;DHT22;3565;53.254;10.352;2023-08-06T00:43:58;15.30;99.90
7048;DHT22;3565;53.254;10.352;2023-08-06T00:46:28;15.30;99.90
7048;DHT22;3565;53.254;10.352;2023-08-06T00:48:57;15.30;99.90
7048;DHT22;3565;53.254;10.352;2023-08-06T00:51:27;15.30;99.90
7048;DHT22;3565;53.254;10.352;2023-08-06T00:53:55;15.30;99.90
7048;DHT22;3565;53.254;10.352;2023-08-06T00:56:26;15.30;99.90
7048;DHT22;3565;53.254;10.352;2023-08-06T00:58:56;15.30;99.90
7048;DHT22;3565;53.254;10.352;2023-08-06T01:01:25;15.20;99.90
7048;DHT22;3565;53.254;10.352;2023-08-06T01:09:24;15.30;99.90
7048;DHT22;3565;53.254;10.352;2023-08-06T01:14:36;15.30;99.90
7048;DHT22;3565;53.254;10.352;2023-08-06T01:19:41;15.20;99.90
7048;DHT22;3565;53.254;10.352;2023-08-06T01:22:11;15.10;99.90
7048;DHT22;3565;53.254;10.352;2023-08-06T01:24:41;15.10;99.90
7048;DHT22;3565;53.254;10.352;2023-08-06T01:29:56;15.10;99.90
7048;DHT22;3565;53.254;10.352;2023-08-06T01:35:00;15.10;99.90
7048;DHT22;3565;53.254;10.352;2023-08-06T01:40:12;15.10;99.90
7048;DHT22;3565;53.254;10.352;2023-08-06T01:42:42;15.10;99.90
7048;DHT22;3565;53.254;10.352;2023-08-06T01:45:11;15.10;99.90
7048;DHT22;3565;53.254;10.352;2023-08-06T01:50:20;15.10;99.90
7048;DHT22;3565;53.254;10.352;2023-08-06T01:52:49;15.10;99.90
7048;DHT22;3565;53.254;10.352;2023-08-06T01:55:18;15.10;99.90
7048;DHT22;3565;53.254;10.352;2023-08-06T02:00:25;15.10;99.90
7048;DHT22;3565;53.254;10.352;2023-08-06T02:02:55;15.10;99.90
7048;DHT22;3565;53.254;10.352;2023-08-06T02:05:24;15.10;99.90
7048;DHT22;3565;53.254;10.352;2023-08-06T02:10:30;15.10;99.90
7048;DHT22;3565;53.254;10.352;2023-08-06T02:13:00;15.10;99.90
7048;DHT22;3565;53.254;10.352;2023-08-06T02:15:29;15.00;99.90
7048;DHT22;3565;53.254;10.352;2023-08-06T02:18:00;15.10;99.90
7048;DHT22;3565;53.254;10.352;2023-08-06T02:20:30;15.10;99.90
7048;DHT22;3565;53.254;10.352;2023-08-06T02:22:59;15.10;99.90
7048;DHT22;3565;53.254;10.352;2023-08-06T02:25:28;15.10;99.90
7048;DHT22;3565;53.254;10.352;2023-08-06T02:27:57;15.10;99.90
7048;DHT22;3565;53.254;10.352;2023-08-06T02:30:27;15.20;99.90
7048;DHT22;3565;53.254;10.352;2023-08-06T02:32:57;15.20;99.90
7048;DHT22;3565;53.254;10.352;2023-08-06T02:35:26;15.20;99.90
7048;DHT22;3565;53.254;10.352;2023-08-06T02:37:55;15.20;99.90
7048;DHT22;3565;53.254;10.352;2023-08-06T02:40:24;15.20;99.90
7048;DHT22;3565;53.254;10.352;2023-08-06T02:45:30;15.20;99.90
7048;DHT22;3565;53.254;10.352;2023-08-06T02:47:59;15.10;99.90
7048;DHT22;3565;53.254;10.352;2023-08-06T02:50:29;15.10;99.90
7048;DHT22;3565;53.254;10.352;2023-08-06T02:52:59;15.10;99.90
7048;DHT22;3565;53.254;10.352;2023-08-06T02:55:30;15.10;99.90
7048;DHT22;3565;53.254;10.352;2023-08-06T02:57:59;15.00;99.90
7048;DHT22;3565;53.254;10.352;2023-08-06T03:00:28;15.10;99.90
7048;DHT22;3565;53.254;10.352;2023-08-06T03:02:57;15.10;99.90
7048;DHT22;3565;53.254;10.352;2023-08-06T03:05:26;15.10;99.90
7048;DHT22;3565;53.254;10.352;2023-08-06T03:07:55;15.10;99.90
7048;DHT22;3565;53.254;10.352;2023-08-06T03:10:24;15.10;99.90
7048;DHT22;3565;53.254;10.352;2023-08-06T03:15:30;15.10;99.90
7048;DHT22;3565;53.254;10.352;2023-08-06T03:17:59;15.10;99.90
7048;DHT22;3565;53.254;10.352;2023-08-06T03:20:28;15.10;99.90
7048;DHT22;3565;53.254;10.352;2023-08-06T03:22:57;15.10;99.90
7048;DHT22;3565;53.254;10.352;2023-08-06T03:25:27;15.10;99.90
7048;DHT22;3565;53.254;10.352;2023-08-06T03:27:56;15.00;99.90
7048;DHT22;3565;53.254;10.352;2023-08-06T03:30:25;15.00;99.90
7048;DHT22;3565;53.254;10.352;2023-08-06T03:35:31;15.00;99.90
7048;DHT22;3565;53.254;10.352;2023-08-06T03:38:00;15.00;99.90
7048;DHT22;3565;53.254;10.352;2023-08-06T03:40:29;15.00;99.90
7048;DHT22;3565;53.254;10.352;2023-08-06T03:42:58;15.00;99.90
7048;DHT22;3565;53.254;10.352;2023-08-06T03:45:27;15.00;99.90
7048;DHT22;3565;53.254;10.352;2023-08-06T03:50:36;15.00;99.90
7048;DHT22;3565;53.254;10.352;2023-08-06T03:53:05;15.00;99.90
7048;DHT22;3565;53.254;10.352;2023-08-06T03:55:35;14.90;99.90
7048;DHT22;3565;53.254;10.352;2023-08-06T03:58:03;14.90;99.90
7048;DHT22;3565;53.254;10.352;2023-08-06T04:00:32;14.90;99.90
7048;DHT22;3565;53.254;10.352;2023-08-06T04:03:03;14.90;99.90
7048;DHT22;3565;53.254;10.352;2023-08-06T04:05:32;14.90;99.90
7048;DHT22;3565;53.254;10.352;2023-08-06T04:08:02;14.80;99.90
7048;DHT22;3565;53.254;10.352;2023-08-06T04:10:31;14.80;99.90
7048;DHT22;3565;53.254;10.352;2023-08-06T04:13:00;14.80;99.90
7048;DHT22;3565;53.254;10.352;2023-08-06T04:15:29;14.80;99.90
7048;DHT22;3565;53.254;10.352;2023-08-06T04:17:58;14.80;99.90
7048;DHT22;3565;53.254;10.352;2023-08-06T04:20:27;14.90;99.90
7048;DHT22;3565;53.254;10.352;2023-08-06T04:22:57;14.90;99.90
7048;DHT22;3565;53.254;10.352;2023-08-06T04:25:26;14.80;99.90
7048;DHT22;3565;53.254;10.352;2023-08-06T04:27:55;14.80;99.90
7048;DHT22;3565;53.254;10.352;2023-08-06T04:30:24;14.90;99.90
7048;DHT22;3565;53.254;10.352;2023-08-06T04:35:31;14.90;99.90
7048;DHT22;3565;53.254;10.352;2023-08-06T04:38:01;14.90;99.90
7048;DHT22;3565;53.254;10.352;2023-08-06T04:40:30;14.90;99.90
7048;DHT22;3565;53.254;10.352;2023-08-06T04:42:59;14.90;99.90
7048;DHT22;3565;53.254;10.352;2023-08-06T04:48:07;15.00;99.90
7048;DHT22;3565;53.254;10.352;2023-08-06T04:50:36;14.90;99.90
7048;DHT22;3565;53.254;10.352;2023-08-06T04:53:05;14.90;99.90
7048;DHT22;3565;53.254;10.352;2023-08-06T04:55:34;14.90;99.90
7048;DHT22;3565;53.254;10.352;2023-08-06T04:58:03;15.00;99.90
7048;DHT22;3565;53.254;10.352;2023-08-06T05:00:33;15.10;99.90
7048;DHT22;3565;53.254;10.352;2023-08-06T05:03:02;15.00;99.90
7048;DHT22;3565;53.254;10.352;2023-08-06T05:05:31;15.10;99.90
7048;DHT22;3565;53.254;10.352;2023-08-06T05:08:00;15.10;99.90
7048;DHT22;3565;53.254;10.352;2023-08-06T05:10:29;15.10;99.90
7048;DHT22;3565;53.254;10.352;2023-08-06T05:12:58;15.20;99.90
7048;DHT22;3565;53.254;10.352;2023-08-06T05:15:28;15.10;99.90
7048;DHT22;3565;53.254;10.352;2023-08-06T05:17:58;15.10;99.90
7048;DHT22;3565;53.254;10.352;2023-08-06T05:20:27;15.10;99.90
7048;DHT22;3565;53.254;10.352;2023-08-06T05:22:56;15.10;99.90
7048;DHT22;3565;53.254;10.352;2023-08-06T05:25:25;15.10;99.90
7048;DHT22;3565;53.254;10.352;2023-08-06T05:30:32;15.20;99.90
7048;DHT22;3565;53.254;10.352;2023-08-06T05:33:02;15.30;99.90
7048;DHT22;3565;53.254;10.352;2023-08-06T05:35:31;15.30;99.90
7048;DHT22;3565;53.254;10.352;2023-08-06T05:38:00;15.30;99.90
7048;DHT22;3565;53.254;10.352;2023-08-06T05:40:29;15.30;99.90
7048;DHT22;3565;53.254;10.352;2023-08-06T05:42:58;15.40;99.90
7048;DHT22;3565;53.254;10.352;2023-08-06T05:45:27;15.50;99.90
7048;DHT22;3565;53.254;10.352;2023-08-06T05:47:56;15.60;99.90
7048;DHT22;3565;53.254;10.352;2023-08-06T05:50:25;15.60;99.90
7048;DHT22;3565;53.254;10.352;2023-08-06T05:55:32;15.80;99.90
7048;DHT22;3565;53.254;10.352;2023-08-06T05:58:02;15.90;99.90
7048;DHT22;3565;53.254;10.352;2023-08-06T06:00:31;16.00;99.90
7048;DHT22;3565;53.254;10.352;2023-08-06T06:03:00;15.90;99.90
7048;DHT22;3565;53.254;10.352;2023-08-06T06:08:08;16.00;99.90
7048;DHT22;3565;53.254;10.352;2023-08-06T06:10:37;16.00;99.90
7048;DHT22;3565;53.254;10.352;2023-08-06T06:13:06;16.10;99.90
7048;DHT22;3565;53.254;10.352;2023-08-06T06:15:35;16.30;99.90
7048;DHT22;3565;53.254;10.352;2023-08-06T06:18:05;16.30;99.90
7048;DHT22;3565;53.254;10.352;2023-08-06T06:20:34;16.30;99.90
7048;DHT22;3565;53.254;10.352;2023-08-06T06:23:03;16.40;99.90
7048;DHT22;3565;53.254;10.352;2023-08-06T06:25:33;16.60;99.90
7048;DHT22;3565;53.254;10.352;2023-08-06T06:30:40;16.60;99.90
7048;DHT22;3565;53.254;10.352;2023-08-06T06:35:48;16.50;1.00
7048;DHT22;3565;53.254;10.352;2023-08-06T06:38:17;16.50;91.00
7048;DHT22;3565;53.254;10.352;2023-08-06T06:43:32;16.50;99.90
7048;DHT22;3565;53.254;10.352;2023-08-06T06:46:01;16.60;99.90
7048;DHT22;3565;53.254;10.352;2023-08-06T06:51:07;16.60;99.90
7048;DHT22;3565;53.254;10.352;2023-08-06T06:56:13;16.60;1.00
7048;DHT22;3565;53.254;10.352;2023-08-06T06:58:42;16.60;41.10
7048;DHT22;3565;53.254;10.352;2023-08-06T07:01:11;16.70;93.20
7048;DHT22;3565;53.254;10.352;2023-08-06T07:06:18;16.90;65.80
7048;DHT22;3565;53.254;10.352;2023-08-06T07:08:46;16.90;79.30
7048;DHT22;3565;53.254;10.352;2023-08-06T07:11:15;17.00;19.40
7048;DHT22;3565;53.254;10.352;2023-08-06T07:16:21;17.00;6.40
7048;DHT22;3565;53.254;10.352;2023-08-06T07:18:52;17.00;14.80
7048;DHT22;3565;53.254;10.352;2023-08-06T07:21:22;17.00;1.00
7048;DHT22;3565;53.254;10.352;2023-08-06T07:26:28;16.90;99.90
7048;DHT22;3565;53.254;10.352;2023-08-06T07:28:57;16.90;99.90
7048;DHT22;3565;53.254;10.352;2023-08-06T07:31:26;17.00;99.90
7048;DHT22;3565;53.254;10.352;2023-08-06T07:33:55;16.90;99.90
7048;DHT22;3565;53.254;10.352;2023-08-06T07:36:24;17.00;99.90
7048;DHT22;3565;53.254;10.352;2023-08-06T07:38:53;17.00;1.00
7048;DHT22;3565;53.254;10.352;2023-08-06T07:41:24;16.90;1.00
7048;DHT22;3565;53.254;10.352;2023-08-06T07:43:53;16.80;99.90
7048;DHT22;3565;53.254;10.352;2023-08-06T07:46:22;16.70;1.00
7048;DHT22;3565;53.254;10.352;2023-08-06T07:51:28;16.70;99.90
7048;DHT22;3565;53.254;10.352;2023-08-06T07:53:57;16.80;99.90
7048;DHT22;3565;53.254;10.352;2023-08-06T07:56:26;16.70;99.90
7048;DHT22;3565;53.254;10.352;2023-08-06T08:01:32;16.70;99.90
7048;DHT22;3565;53.254;10.352;2023-08-06T08:04:01;16.60;99.90
7048;DHT22;3565;53.254;10.352;2023-08-06T08:06:32;16.60;99.90
7048;DHT22;3565;53.254;10.352;2023-08-06T08:09:02;16.50;99.90
7048;DHT22;3565;53.254;10.352;2023-08-06T08:11:31;16.40;99.90
7048;DHT22;3565;53.254;10.352;2023-08-06T08:14:00;16.40;99.90
7048;DHT22;3565;53.254;10.352;2023-08-06T08:16:31;16.70;99.90
7048;DHT22;3565;53.254;10.352;2023-08-06T08:19:00;16.80;99.90
7048;DHT22;3565;53.254;10.352;2023-08-06T08:21:31;16.80;99.90
7048;DHT22;3565;53.254;10.352;2023-08-06T08:24:01;16.80;99.90
7048;DHT22;3565;53.254;10.352;2023-08-06T08:26:30;16.90;99.90
7048;DHT22;3565;53.254;10.352;2023-08-06T08:28:59;16.70;99.90
7048;DHT22;3565;53.254;10.352;2023-08-06T08:31:28;16.70;99.90
7048;DHT22;3565;53.254;10.352;2023-08-06T08:33:57;16.80;99.90
7048;DHT22;3565;53.254;10.352;2023-08-06T08:36:28;16.70;99.90
7048;DHT22;3565;53.254;10.352;2023-08-06T08:38:57;17.00;99.90
7048;DHT22;3565;53.254;10.352;2023-08-06T08:41:28;17.10;99.90
7048;DHT22;3565;53.254;10.352;2023-08-06T08:43:59;16.90;99.90
7048;DHT22;3565;53.254;10.352;2023-08-06T08:46:30;16.90;99.90
7048;DHT22;3565;53.254;10.352;2023-08-06T08:49:00;17.20;99.90
7048;DHT22;3565;53.254;10.352;2023-08-06T08:51:31;17.20;99.90
7048;DHT22;3565;53.254;10.352;2023-08-06T08:54:03;17.10;99.90
7048;DHT22;3565;53.254;10.352;2023-08-06T08:59:11;17.30;99.90
7048;DHT22;3565;53.254;10.352;2023-08-06T09:01:41;17.40;33.40
7048;DHT22;3565;53.254;10.352;2023-08-06T09:04:11;17.50;16.00
7048;DHT22;3565;53.254;10.352;2023-08-06T09:09:20;17.60;99.90
7048;DHT22;3565;53.254;10.352;2023-08-06T09:14:27;17.30;99.90
7048;DHT22;3565;53.254;10.352;2023-08-06T09:16:56;17.20;1.00
7048;DHT22;3565;53.254;10.352;2023-08-06T09:19:27;17.30;1.00
7048;DHT22;3565;53.254;10.352;2023-08-06T09:21:57;17.60;1.00
7048;DHT22;3565;53.254;10.352;2023-08-06T09:24:26;17.70;86.50
7048;DHT22;3565;53.254;10.352;2023-08-06T09:29:32;18.00;99.90
7048;DHT22;3565;53.254;10.352;2023-08-06T09:34:41;18.20;99.90
7048;DHT22;3565;53.254;10.352;2023-08-06T09:37:10;18.00;1.00
7048;DHT22;3565;53.254;10.352;2023-08-06T09:39:40;18.10;99.90
7048;DHT22;3565;53.254;10.352;2023-08-06T09:44:46;18.10;1.00
7048;DHT22;3565;53.254;10.352;2023-08-06T09:47:16;18.00;1.00
7048;DHT22;3565;53.254;10.352;2023-08-06T09:49:45;18.10;99.90
7048;DHT22;3565;53.254;10.352;2023-08-06T09:54:53;18.40;99.90
7048;DHT22;3565;53.254;10.352;2023-08-06T09:57:22;18.40;99.90
7048;DHT22;3565;53.254;10.352;2023-08-06T09:59:53;18.30;38.80
7048;DHT22;3565;53.254;10.352;2023-08-06T10:05:04;17.90;99.90
7048;DHT22;3565;53.254;10.352;2023-08-06T10:07:34;17.90;1.00
7048;DHT22;3565;53.254;10.352;2023-08-06T10:10:06;18.00;99.90
7048;DHT22;3565;53.254;10.352;2023-08-06T10:15:15;17.70;99.90
7048;DHT22;3565;53.254;10.352;2023-08-06T10:17:47;17.80;1.00
7048;DHT22;3565;53.254;10.352;2023-08-06T10:20:16;17.90;99.90
7048;DHT22;3565;53.254;10.352;2023-08-06T10:25:25;18.30;99.90
7048;DHT22;3565;53.254;10.352;2023-08-06T10:27:57;18.30;1.00
7048;DHT22;3565;53.254;10.352;2023-08-06T10:30:27;18.40;4.00
7048;DHT22;3565;53.254;10.352;2023-08-06T10:32:57;18.50;1.00
7048;DHT22;3565;53.254;10.352;2023-08-06T10:35:47;18.60;1.00
7048;DHT22;3565;53.254;10.352;2023-08-06T10:38:19;18.90;99.90
7048;DHT22;3565;53.254;10.352;2023-08-06T10:43:29;20.10;99.90
7048;DHT22;3565;53.254;10.352;2023-08-06T10:46:01;20.00;1.00
7048;DHT22;3565;53.254;10.352;2023-08-06T10:51:11;20.10;1.00
7048;DHT22;3565;53.254;10.352;2023-08-06T10:53:43;20.10;1.00
7048;DHT22;3565;53.254;10.352;2023-08-06T10:58:54;20.50;1.00
7048;DHT22;3565;53.254;10.352;2023-08-06T11:01:24;20.90;1.00
7048;DHT22;3565;53.254;10.352;2023-08-06T11:03:55;20.90;1.00
7048;DHT22;3565;53.254;10.352;2023-08-06T11:06:24;20.40;1.00
7048;DHT22;3565;53.254;10.352;2023-08-06T11:11:32;19.90;1.00
7048;DHT22;3565;53.254;10.352;2023-08-06T11:14:01;19.80;1.00
7048;DHT22;3565;53.254;10.352;2023-08-06T11:16:30;19.60;1.00
7048;DHT22;3565;53.254;10.352;2023-08-06T11:19:00;19.80;1.00
7048;DHT22;3565;53.254;10.352;2023-08-06T11:21:29;20.20;1.00
7048;DHT22;3565;53.254;10.352;2023-08-06T11:23:59;20.40;1.00
7048;DHT22;3565;53.254;10.352;2023-08-06T11:26:28;20.50;1.00
7048;DHT22;3565;53.254;10.352;2023-08-06T11:28:59;20.20;1.00
7048;DHT22;3565;53.254;10.352;2023-08-06T11:31:29;20.40;1.00
7048;DHT22;3565;53.254;10.352;2023-08-06T11:33:58;20.30;1.00
7048;DHT22;3565;53.254;10.352;2023-08-06T11:36:31;19.90;1.00
7048;DHT22;3565;53.254;10.352;2023-08-06T11:39:01;19.70;1.00
7048;DHT22;3565;53.254;10.352;2023-08-06T11:41:33;19.90;1.00
7048;DHT22;3565;53.254;10.352;2023-08-06T11:44:04;20.30;1.00
7048;DHT22;3565;53.254;10.352;2023-08-06T11:46:51;20.80;1.00
7048;DHT22;3565;53.254;10.352;2023-08-06T11:49:38;20.90;1.00
7048;DHT22;3565;53.254;10.352;2023-08-06T11:55:02;20.60;1.00
7048;DHT22;3565;53.254;10.352;2023-08-06T12:00:12;21.00;1.00
7048;DHT22;3565;53.254;10.352;2023-08-06T12:02:43;21.20;1.00
7048;DHT22;3565;53.254;10.352;2023-08-06T12:05:14;21.10;1.00
7048;DHT22;3565;53.254;10.352;2023-08-06T12:10:24;21.40;1.00
7048;DHT22;3565;53.254;10.352;2023-08-06T12:12:54;20.70;1.00
7048;DHT22;3565;53.254;10.352;2023-08-06T12:15:23;20.50;1.00
7048;DHT22;3565;53.254;10.352;2023-08-06T12:17:54;20.30;1.00
7048;DHT22;3565;53.254;10.352;2023-08-06T12:20:23;21.10;1.00
7048;DHT22;3565;53.254;10.352;2023-08-06T12:22:53;21.50;1.00
7048;DHT22;3565;53.254;10.352;2023-08-06T12:25:22;21.30;1.00
7048;DHT22;3565;53.254;10.352;2023-08-06T12:27:51;21.30;1.00
7048;DHT22;3565;53.254;10.352;2023-08-06T12:30:20;21.20;1.00
7048;DHT22;3565;53.254;10.352;2023-08-06T12:32:49;21.20;1.00
7048;DHT22;3565;53.254;10.352;2023-08-06T12:35:19;20.70;1.00
7048;DHT22;3565;53.254;10.352;2023-08-06T12:37:48;21.10;1.00
7048;DHT22;3565;53.254;10.352;2023-08-06T12:40:18;20.90;1.00
7048;DHT22;3565;53.254;10.352;2023-08-06T12:45:27;21.00;1.00
7048;DHT22;3565;53.254;10.352;2023-08-06T12:47:56;20.60;1.00
7048;DHT22;3565;53.254;10.352;2023-08-06T12:50:25;21.00;1.00
7048;DHT22;3565;53.254;10.352;2023-08-06T12:55:31;21.00;1.00
7048;DHT22;3565;53.254;10.352;2023-08-06T13:00:39;20.90;1.00
7048;DHT22;3565;53.254;10.352;2023-08-06T13:05:45;20.80;1.00
7048;DHT22;3565;53.254;10.352;2023-08-06T13:08:15;21.10;1.00
7048;DHT22;3565;53.254;10.352;2023-08-06T13:10:44;20.90;1.00
7048;DHT22;3565;53.254;10.352;2023-08-06T13:15:50;20.90;1.00
7048;DHT22;3565;53.254;10.352;2023-08-06T13:18:19;21.40;1.00
7048;DHT22;3565;53.254;10.352;2023-08-06T13:20:48;21.60;1.00
7048;DHT22;3565;53.254;10.352;2023-08-06T13:25:58;22.20;1.00
7048;DHT22;3565;53.254;10.352;2023-08-06T13:28:27;22.30;1.00
7048;DHT22;3565;53.254;10.352;2023-08-06T13:30:56;22.40;1.00
7048;DHT22;3565;53.254;10.352;2023-08-06T13:36:02;21.40;1.00
7048;DHT22;3565;53.254;10.352;2023-08-06T13:38:32;20.80;1.00
7048;DHT22;3565;53.254;10.352;2023-08-06T13:41:01;20.60;1.00
7048;DHT22;3565;53.254;10.352;2023-08-06T13:46:07;20.70;1.00
7048;DHT22;3565;53.254;10.352;2023-08-06T13:48:36;21.70;1.00
7048;DHT22;3565;53.254;10.352;2023-08-06T13:51:05;22.30;1.00
7048;DHT22;3565;53.254;10.352;2023-08-06T13:56:13;21.70;1.00
7048;DHT22;3565;53.254;10.352;2023-08-06T13:58:45;21.50;1.00
7048;DHT22;3565;53.254;10.352;2023-08-06T14:01:16;21.50;1.00
7048;DHT22;3565;53.254;10.352;2023-08-06T14:06:21;21.20;1.00
7048;DHT22;3565;53.254;10.352;2023-08-06T14:08:50;20.80;1.00
7048;DHT22;3565;53.254;10.352;2023-08-06T14:11:19;20.60;1.00
7048;DHT22;3565;53.254;10.352;2023-08-06T14:16:28;20.50;1.00
7048;DHT22;3565;53.254;10.352;2023-08-06T14:18:57;20.30;1.00
7048;DHT22;3565;53.254;10.352;2023-08-06T14:21:26;20.50;1.00
7048;DHT22;3565;53.254;10.352;2023-08-06T14:26:33;20.30;1.00
7048;DHT22;3565;53.254;10.352;2023-08-06T14:29:02;20.60;1.00
7048;DHT22;3565;53.254;10.352;2023-08-06T14:31:31;20.60;1.00
7048;DHT22;3565;53.254;10.352;2023-08-06T14:34:00;20.50;1.00
7048;DHT22;3565;53.254;10.352;2023-08-06T14:36:29;20.60;1.00
7048;DHT22;3565;53.254;10.352;2023-08-06T14:38:58;20.50;1.00
7048;DHT22;3565;53.254;10.352;2023-08-06T14:41:27;20.50;1.00
7048;DHT22;3565;53.254;10.352;2023-08-06T14:43:57;20.50;1.00
7048;DHT22;3565;53.254;10.352;2023-08-06T14:46:27;20.60;1.00
7048;DHT22;3565;53.254;10.352;2023-08-06T14:48:56;20.80;1.00
7048;DHT22;3565;53.254;10.352;2023-08-06T14:51:25;21.20;1.00
7048;DHT22;3565;53.254;10.352;2023-08-06T14:53:56;21.30;1.00
7048;DHT22;3565;53.254;10.352;2023-08-06T14:56:25;21.30;1.00
7048;DHT22;3565;53.254;10.352;2023-08-06T15:01:33;20.70;1.00
7048;DHT22;3565;53.254;10.352;2023-08-06T15:04:03;20.70;1.00
7048;DHT22;3565;53.254;10.352;2023-08-06T15:06:32;20.80;1.00
7048;DHT22;3565;53.254;10.352;2023-08-06T15:09:01;20.90;1.00
7048;DHT22;3565;53.254;10.352;2023-08-06T15:11:30;20.80;1.00
7048;DHT22;3565;53.254;10.352;2023-08-06T15:13:59;21.20;1.00
7048;DHT22;3565;53.254;10.352;2023-08-06T15:16:28;20.70;1.00
7048;DHT22;3565;53.254;10.352;2023-08-06T15:18:57;20.60;1.00
7048;DHT22;3565;53.254;10.352;2023-08-06T15:21:27;20.50;1.00
7048;DHT22;3565;53.254;10.352;2023-08-06T15:23:56;20.60;1.00
7048;DHT22;3565;53.254;10.352;2023-08-06T15:26:26;20.40;1.00
7048;DHT22;3565;53.254;10.352;2023-08-06T15:28:55;20.30;1.00
7048;DHT22;3565;53.254;10.352;2023-08-06T15:31:34;20.10;1.00
7048;DHT22;3565;53.254;10.352;2023-08-06T15:33:59;20.10;1.00
7048;DHT22;3565;53.254;10.352;2023-08-06T15:36:28;20.40;1.00
7048;DHT22;3565;53.254;10.352;2023-08-06T15:41:37;20.30;1.00
7048;DHT22;3565;53.254;10.352;2023-08-06T15:44:07;19.90;1.00
7048;DHT22;3565;53.254;10.352;2023-08-06T15:46:37;19.40;1.00
7048;DHT22;3565;53.254;10.352;2023-08-06T15:49:07;19.30;1.00
7048;DHT22;3565;53.254;10.352;2023-08-06T15:54:13;19.30;1.00
7048;DHT22;3565;53.254;10.352;2023-08-06T15:56:42;19.30;1.00
7048;DHT22;3565;53.254;10.352;2023-08-06T15:59:26;19.30;1.00
7048;DHT22;3565;53.254;10.352;2023-08-06T16:04:33;19.10;1.00
7048;DHT22;3565;53.254;10.352;2023-08-06T16:07:03;18.90;1.00
7048;DHT22;3565;53.254;10.352;2023-08-06T16:09:32;18.70;1.00
7048;DHT22;3565;53.254;10.352;2023-08-06T16:14:46;18.10;1.00
7048;DHT22;3565;53.254;10.352;2023-08-06T16:17:16;17.70;99.90
7048;DHT22;3565;53.254;10.352;2023-08-06T16:22:27;17.30;1.00
7048;DHT22;3565;53.254;10.352;2023-08-06T16:24:56;17.10;99.90
7048;DHT22;3565;53.254;10.352;2023-08-06T16:27:25;17.10;1.00
7048;DHT22;3565;53.254;10.352;2023-08-06T16:32:31;17.00;1.00
7048;DHT22;3565;53.254;10.352;2023-08-06T16:35:02;17.00;99.90
7048;DHT22;3565;53.254;10.352;2023-08-06T16:37:32;16.90;99.90
7048;DHT22;3565;53.254;10.352;2023-08-06T16:40:02;16.90;1.00
7048;DHT22;3565;53.254;10.352;2023-08-06T16:42:50;17.00;99.90
7048;DHT22;3565;53.254;10.352;2023-08-06T16:45:20;17.00;1.00
7048;DHT22;3565;53.254;10.352;2023-08-06T16:47:49;17.00;1.00
7048;DHT22;3565;53.254;10.352;2023-08-06T16:50:18;17.00;1.00
7048;DHT22;3565;53.254;10.352;2023-08-06T16:55:24;16.90;1.00
7048;DHT22;3565;53.254;10.352;2023-08-06T16:57:53;16.90;60.20
7048;DHT22;3565;53.254;10.352;2023-08-06T17:00:22;16.90;99.90
7048;DHT22;3565;53.254;10.352;2023-08-06T17:05:29;17.00;30.00
7048;DHT22;3565;53.254;10.352;2023-08-06T17:07:58;16.90;1.00
7048;DHT22;3565;53.254;10.352;2023-08-06T17:10:29;17.00;1.00
7048;DHT22;3565;53.254;10.352;2023-08-06T17:15:37;17.00;13.70
7048;DHT22;3565;53.254;10.352;2023-08-06T17:18:06;17.00;6.40
7048;DHT22;3565;53.254;10.352;2023-08-06T17:20:37;17.00;12.30
7048;DHT22;3565;53.254;10.352;2023-08-06T17:25:43;16.90;1.00
7048;DHT22;3565;53.254;10.352;2023-08-06T17:28:13;16.90;99.90
7048;DHT22;3565;53.254;10.352;2023-08-06T17:30:42;16.90;99.90
7048;DHT22;3565;53.254;10.352;2023-08-06T17:35:48;16.90;15.10
7048;DHT22;3565;53.254;10.352;2023-08-06T17:40:56;16.80;1.00
7048;DHT22;3565;53.254;10.352;2023-08-06T17:46:04;16.90;99.90
7048;DHT22;3565;53.254;10.352;2023-08-06T17:48:33;16.80;1.00
7048;DHT22;3565;53.254;10.352;2023-08-06T17:51:02;16.80;1.00
7048;DHT22;3565;53.254;10.352;2023-08-06T17:56:09;16.60;1.00
7048;DHT22;3565;53.254;10.352;2023-08-06T17:58:38;16.70;99.90
7048;DHT22;3565;53.254;10.352;2023-08-06T18:01:07;16.70;99.90
7048;DHT22;3565;53.254;10.352;2023-08-06T18:06:14;16.70;1.00
7048;DHT22;3565;53.254;10.352;2023-08-06T18:08:43;16.70;42.30
7048;DHT22;3565;53.254;10.352;2023-08-06T18:11:12;16.80;99.90
7048;DHT22;3565;53.254;10.352;2023-08-06T18:16:18;16.70;1.00
7048;DHT22;3565;53.254;10.352;2023-08-06T18:18:48;16.60;1.00
7048;DHT22;3565;53.254;10.352;2023-08-06T18:21:18;16.60;1.00
7048;DHT22;3565;53.254;10.352;2023-08-06T18:26:25;16.60;99.10
7048;DHT22;3565;53.254;10.352;2023-08-06T18:28:55;16.50;99.90
7048;DHT22;3565;53.254;10.352;2023-08-06T18:31:25;16.50;1.00
7048;DHT22;3565;53.254;10.352;2023-08-06T18:36:32;16.50;9.40
7048;DHT22;3565;53.254;10.352;2023-08-06T18:39:01;16.40;99.90
7048;DHT22;3565;53.254;10.352;2023-08-06T18:41:30;16.40;99.90
7048;DHT22;3565;53.254;10.352;2023-08-06T18:44:01;16.40;62.60
7048;DHT22;3565;53.254;10.352;2023-08-06T18:46:30;16.30;1.00
7048;DHT22;3565;53.254;10.352;2023-08-06T18:48:59;16.30;55.10
7048;DHT22;3565;53.254;10.352;2023-08-06T18:51:28;16.30;99.90
7048;DHT22;3565;53.254;10.352;2023-08-06T18:53:57;16.30;1.00
7048;DHT22;3565;53.254;10.352;2023-08-06T18:56:26;16.20;1.00
7048;DHT22;3565;53.254;10.352;2023-08-06T19:01:33;16.20;1.00
7048;DHT22;3565;53.254;10.352;2023-08-06T19:04:02;16.20;1.00
7048;DHT22;3565;53.254;10.352;2023-08-06T19:06:31;16.10;12.00
7048;DHT22;3565;53.254;10.352;2023-08-06T19:09:01;16.20;79.00
7048;DHT22;3565;53.254;10.352;2023-08-06T19:11:30;16.10;86.20
7048;DHT22;3565;53.254;10.352;2023-08-06T19:13:59;16.10;99.90
7048;DHT22;3565;53.254;10.352;2023-08-06T19:16:29;16.10;99.90
7048;DHT22;3565;53.254;10.352;2023-08-06T19:18:59;16.10;99.90
7048;DHT22;3565;53.254;10.352;2023-08-06T19:21:28;16.00;99.90
7048;DHT22;3565;53.254;10.352;2023-08-06T19:23:57;16.00;99.90
7048;DHT22;3565;53.254;10.352;2023-08-06T19:26:27;16.00;99.90
7048;DHT22;3565;53.254;10.352;2023-08-06T19:28:56;15.90;99.90
7048;DHT22;3565;53.254;10.352;2023-08-06T19:31:26;15.90;99.90
7048;DHT22;3565;53.254;10.352;2023-08-06T19:36:32;15.90;99.90
7048;DHT22;3565;53.254;10.352;2023-08-06T19:39:01;15.90;99.90
7048;DHT22;3565;53.254;10.352;2023-08-06T19:41:31;15.90;99.90